Terminal Aerodrome Forecast
Issued by NWS

Home | Current Version | Previous Version | Text Only | Print | Product List | Glossary On
Versions: 1 2 3 4 5 6 7 8 9 10 11 12 13 14 15 16 17
820
FTUS42 KJAX 270809 AAA
TAFCRG
TAF AMD
KCRG 270809Z 2708/2806 00000KT 3SM BR SCT030
      TEMPO 2708/2712 1/2SM FG
     FM271400 16006KT P6SM SCT040
     FM271700 10010KT P6SM SCT050 SCT250
     FM280000 16007KT P6SM FEW050 FEW250=

USA.gov is the U.S. government's official web portal to all federal, state and local government web resources and services.